createdAt,value
2016-06-15T00:00:11.721Z,78.57
2016-06-15T00:01:11.397Z,78.67
2016-06-15T00:02:10.963Z,78.28
2016-06-15T00:03:11.309Z,78.38
2016-06-15T00:04:10.984Z,78.38
2016-06-15T00:05:11.222Z,78.38
2016-06-15T00:06:11.240Z,78.38
2016-06-15T00:08:11.090Z,78.28
2016-06-15T00:10:11.269Z,78.28
2016-06-15T00:11:10.865Z,78.28
2016-06-15T00:12:10.509Z,78.28
2016-06-15T00:13:10.699Z,78.38
2016-06-15T00:14:10.984Z,78.47
2016-06-15T00:15:11.628Z,78.38
2016-06-15T00:16:10.818Z,78.28
2016-06-15T00:17:11.181Z,78.19
2016-06-15T00:18:10.746Z,78.28
2016-06-15T00:19:10.905Z,78.19
2016-06-15T00:20:13.908Z,78.38
2016-06-15T00:21:10.678Z,78.28
2016-06-15T00:22:10.321Z,78.38
2016-06-15T00:23:10.934Z,78.38
2016-06-15T00:24:10.639Z,78.19
2016-06-15T00:25:10.362Z,78.38
2016-06-15T00:26:10.301Z,78.38
2016-06-15T00:27:10.555Z,78.28
2016-06-15T00:28:10.120Z,78.19
2016-06-15T00:29:10.108Z,78.19
2016-06-15T00:30:10.063Z,78.38
2016-06-15T00:31:10.052Z,78.19
2016-06-15T00:32:10.086Z,78.38
2016-06-15T00:33:10.042Z,78.38
2016-06-15T00:34:10.014Z,78.28
2016-06-15T00:35:10.236Z,78.09
2016-06-15T00:36:10.161Z,78.19
2016-06-15T00:37:09.945Z,78.19
2016-06-15T00:38:10.729Z,78.19
2016-06-15T00:39:10.545Z,78.47
2016-06-15T00:40:10.564Z,78.57
2016-06-15T00:41:10.488Z,78.38
2016-06-15T00:42:10.539Z,78.19
2016-06-15T00:44:09.670Z,78.19
2016-06-15T00:45:09.907Z,78.09
2016-06-15T00:46:10.113Z,78.19
2016-06-15T00:47:09.944Z,78
2016-06-15T00:48:10.072Z,78.09
2016-06-15T00:49:09.669Z,78.47
2016-06-15T00:50:10.219Z,78.09
2016-06-15T00:51:10.176Z,78.38
2016-06-15T00:52:10.194Z,78.38
2016-06-15T00:53:09.807Z,78.09
2016-06-15T00:54:09.591Z,77.9
2016-06-15T00:55:09.969Z,78.57
2016-06-15T00:56:09.519Z,78.19
2016-06-15T00:57:09.772Z,78.19
2016-06-15T00:58:09.963Z,78.09
2016-06-15T00:59:09.892Z,78.09
2016-06-15T01:00:10.401Z,78.19
2016-06-15T01:01:09.737Z,78.28
2016-06-15T01:02:09.791Z,78.38
2016-06-15T01:03:23.437Z,78.38
2016-06-15T01:04:10.047Z,78.19
2016-06-15T01:05:10.016Z,78.19
2016-06-15T01:06:09.954Z,78.28
2016-06-15T01:07:09.689Z,78.19
2016-06-15T01:08:10.104Z,78.28
2016-06-15T01:09:12.832Z,78.09
2016-06-15T01:10:09.948Z,78.28
2016-06-15T01:11:09.957Z,78.28
2016-06-15T01:12:10.074Z,78.19
2016-06-15T01:13:10.095Z,78.28
2016-06-15T01:14:10.084Z,78.28
2016-06-15T01:15:09.979Z,78.47
2016-06-15T01:16:10.062Z,78.19
2016-06-15T01:17:09.816Z,78.05
2016-06-15T01:18:10.087Z,78.38
2016-06-15T01:19:09.387Z,78.34
2016-06-15T01:20:09.219Z,78.25
2016-06-15T01:21:09.489Z,78.28
2016-06-15T01:22:09.555Z,78.19
2016-06-15T01:23:09.261Z,78.15
2016-06-15T01:24:09.374Z,78.28
2016-06-15T01:25:13.236Z,78.38
2016-06-15T01:26:09.895Z,78.34
2016-06-15T01:27:09.477Z,78.34
2016-06-15T01:28:09.276Z,78.25
2016-06-15T01:29:09.249Z,78.44
2016-06-15T01:30:09.267Z,78.15
2016-06-15T01:31:09.927Z,78.15
2016-06-15T01:32:09.648Z,78.25
2016-06-15T01:33:09.339Z,78.44
2016-06-15T01:34:12.872Z,78.09
2016-06-15T01:35:09.048Z,78.15
2016-06-15T01:36:09.082Z,78.38
2016-06-15T01:37:09.382Z,78.34
2016-06-15T01:38:09.792Z,78.28
2016-06-15T01:39:09.279Z,78.15
2016-06-15T01:40:08.970Z,78.34
2016-06-15T01:41:09.973Z,78.34
2016-06-15T01:42:09.366Z,78.25
2016-06-15T01:43:09.260Z,78.34
2016-06-15T01:44:09.498Z,78.34
2016-06-15T01:45:09.422Z,78.34
2016-06-15T01:46:09.566Z,78.15
2016-06-15T01:47:09.397Z,78.05
2016-06-15T01:48:12.401Z,78.44
2016-06-15T01:49:09.326Z,78.34
2016-06-15T01:50:08.766Z,78.25
2016-06-15T01:51:08.785Z,78.34
2016-06-15T01:52:09.319Z,78.05
2016-06-15T01:53:09.463Z,78.15
2016-06-15T01:54:09.356Z,78.05
2016-06-15T01:55:09.000Z,78.25
2016-06-15T01:56:09.081Z,78.15
2016-06-15T01:57:09.334Z,77.86
2016-06-15T01:58:09.103Z,78.05
2016-06-15T01:59:25.607Z,78.34
2016-06-15T02:00:09.188Z,78.25
2016-06-15T02:01:12.160Z,78.15
2016-06-15T02:02:09.506Z,78.25
2016-06-15T02:03:08.947Z,78.15
2016-06-15T02:04:09.075Z,78.15
2016-06-15T02:05:09.109Z,78.25
2016-06-15T02:06:08.784Z,78.15
2016-06-15T02:07:12.084Z,78.25
2016-06-15T02:08:09.009Z,78.34
2016-06-15T02:09:08.699Z,78.15
2016-06-15T02:10:08.796Z,78.15
2016-06-15T02:11:08.847Z,78.44
2016-06-15T02:12:08.850Z,78.34
2016-06-15T02:13:08.931Z,78.34
2016-06-15T02:14:08.700Z,78.34
2016-06-15T02:15:08.734Z,78.15
2016-06-15T02:16:08.643Z,78.25
2016-06-15T02:17:08.896Z,78.15
2016-06-15T02:18:11.727Z,78.05
2016-06-15T02:19:08.480Z,78.15
2016-06-15T02:20:08.514Z,78.15
2016-06-15T02:21:11.736Z,78.15
2016-06-15T02:22:08.037Z,78.25
2016-06-15T02:23:08.055Z,77.86
2016-06-15T02:24:07.934Z,78.15
2016-06-15T02:25:08.108Z,78.05
2016-06-15T02:26:08.361Z,78.05
2016-06-15T02:27:08.348Z,78.05
2016-06-15T02:28:08.055Z,77.86
2016-06-15T02:29:08.135Z,78.34
2016-06-15T02:30:08.545Z,78.05
2016-06-15T02:31:08.563Z,78.44
2016-06-15T02:32:08.630Z,78.05
2016-06-15T02:33:08.414Z,77.86
2016-06-15T02:34:08.620Z,77.95
2016-06-15T02:35:08.498Z,78.05
2016-06-15T02:36:08.470Z,78.25
2016-06-15T02:37:08.270Z,78.15
2016-06-15T02:38:08.101Z,78.34
2016-06-15T02:39:08.213Z,78.34
2016-06-15T02:40:08.544Z,78.05
2016-06-15T02:41:08.236Z,78.44
2016-06-15T02:42:08.035Z,78.53
2016-06-15T02:43:08.101Z,78.25
2016-06-15T02:44:08.151Z,78.63
2016-06-15T02:45:08.107Z,78.63
2016-06-15T02:46:07.626Z,78.34
2016-06-15T02:47:07.894Z,78.63
2016-06-15T02:48:07.897Z,78.25
2016-06-15T02:49:11.197Z,78.63
2016-06-15T02:50:08.045Z,78.15
2016-06-15T02:51:08.547Z,78.72
2016-06-15T02:52:07.973Z,78.63
2016-06-15T02:53:08.131Z,79.01
2016-06-15T02:54:08.635Z,79.01
2016-06-15T02:55:07.260Z,78.92
2016-06-15T02:56:07.201Z,79.11
2016-06-15T02:57:07.893Z,78.92
2016-06-15T02:58:07.944Z,79.11
2016-06-15T02:59:07.493Z,78.78
2016-06-15T03:00:07.684Z,79.01
2016-06-15T03:01:07.687Z,78.82
2016-06-15T03:02:07.535Z,78.72
2016-06-15T03:03:07.771Z,79.11
2016-06-15T03:04:07.759Z,79.11
2016-06-15T03:05:07.556Z,78.82
2016-06-15T03:06:10.781Z,78.82
2016-06-15T03:07:07.031Z,78.82
2016-06-15T03:08:06.956Z,79.11
2016-06-15T03:09:06.944Z,79.11
2016-06-15T03:10:07.525Z,78.72
2016-06-15T03:11:06.871Z,78.72
2016-06-15T03:12:07.515Z,78.82
2016-06-15T03:13:07.565Z,78.92
2016-06-15T03:14:07.240Z,78.82
2016-06-15T03:15:07.540Z,78.72
2016-06-15T03:16:06.887Z,78.92
2016-06-15T03:17:06.827Z,78.82
2016-06-15T03:18:07.425Z,78.92
2016-06-15T03:19:07.396Z,78.63
2016-06-15T03:20:07.383Z,79.01
2016-06-15T03:21:07.808Z,78.72
2016-06-15T03:22:06.655Z,78.92
2016-06-15T03:23:07.158Z,78.82
2016-06-15T03:24:06.693Z,78.72
2016-06-15T03:25:06.570Z,78.53
2016-06-15T03:26:10.311Z,78.59
2016-06-15T03:27:06.874Z,78.63
2016-06-15T03:28:07.017Z,78.72
2016-06-15T03:29:07.223Z,78.82
2016-06-15T03:30:07.086Z,78.82
2016-06-15T03:31:06.448Z,78.63
2016-06-15T03:32:06.420Z,78.63
2016-06-15T03:33:06.423Z,78.59
2016-06-15T03:34:06.363Z,78.82
2016-06-15T03:35:06.446Z,78.69
2016-06-15T03:36:06.182Z,78.63
2016-06-15T03:38:06.751Z,78.63
2016-06-15T03:39:06.801Z,78.44
2016-06-15T03:40:06.445Z,78.72
2016-06-15T03:41:06.401Z,78.63
2016-06-15T03:42:06.623Z,78.69
2016-06-15T03:43:07.235Z,78.59
2016-06-15T03:44:06.379Z,78.82
2016-06-15T03:45:06.054Z,78.78
2016-06-15T03:46:06.589Z,78.82
2016-06-15T03:47:06.232Z,79.01
2016-06-15T03:48:20.050Z,79.16
2016-06-15T03:50:06.195Z,78.92
2016-06-15T03:51:09.248Z,78.92
2016-06-15T03:52:06.638Z,79.16
2016-06-15T03:53:06.250Z,79.16
2016-06-15T03:54:06.191Z,78.92
2016-06-15T03:55:06.177Z,78.82
2016-06-15T03:56:06.431Z,79.01
2016-06-15T03:57:06.263Z,78.78
2016-06-15T03:58:06.437Z,78.82
2016-06-15T03:59:06.348Z,78.4
2016-06-15T04:00:06.506Z,78.63
2016-06-15T04:01:06.368Z,78.63
2016-06-15T04:02:06.232Z,78.63
2016-06-15T04:03:07.109Z,78.69
2016-06-15T04:04:06.472Z,78.69
2016-06-15T04:05:06.083Z,79.11
2016-06-15T04:07:06.044Z,79.11
2016-06-15T04:08:06.359Z,79.21
2016-06-15T04:09:05.628Z,79.11
2016-06-15T04:10:05.599Z,79.21
2016-06-15T04:11:05.571Z,79.21
2016-06-15T04:12:05.559Z,78.92
2016-06-15T04:13:08.780Z,79.21
2016-06-15T04:14:05.924Z,79.21
2016-06-15T04:15:05.489Z,79.11
2016-06-15T04:16:05.493Z,79.21
2016-06-15T04:17:05.433Z,79.01
2016-06-15T04:18:05.421Z,79.11
2016-06-15T04:19:05.612Z,79.78
2016-06-15T04:20:06.021Z,79.21
2016-06-15T04:21:05.618Z,79.83
2016-06-15T04:22:06.058Z,79.83
2016-06-15T04:23:06.014Z,79.83
2016-06-15T04:24:05.846Z,79.68
2016-06-15T04:25:05.553Z,79.59
2016-06-15T04:26:05.258Z,79.68
2016-06-15T04:27:05.590Z,79.74
2016-06-15T04:28:05.514Z,79.68
2016-06-15T04:29:05.549Z,79.64
2016-06-15T04:30:05.146Z,79.36
2016-06-15T04:31:05.149Z,79.88
2016-06-15T04:32:05.449Z,79.21
2016-06-15T04:33:05.577Z,79.39
2016-06-15T04:34:05.580Z,79.78
2016-06-15T04:35:05.348Z,79.88
2016-06-15T04:36:05.445Z,79.21
2016-06-15T04:37:05.276Z,79.68
2016-06-15T04:38:04.982Z,79.97
2016-06-15T04:39:05.548Z,79.36
2016-06-15T04:40:05.051Z,79.68
2016-06-15T04:41:05.305Z,79.68
2016-06-15T04:43:05.482Z,79.21
2016-06-15T04:44:05.188Z,79.21
2016-06-15T04:45:05.191Z,79.88
2016-06-15T04:46:04.819Z,79.88
2016-06-15T04:47:05.338Z,79.59
2016-06-15T04:48:05.044Z,79.78
2016-06-15T04:49:04.766Z,79.97
2016-06-15T04:50:04.738Z,79.88
2016-06-15T04:51:04.882Z,79.88
2016-06-15T04:52:04.588Z,79.88
2016-06-15T04:53:04.669Z,79.88
2016-06-15T04:54:04.641Z,79.21
2016-06-15T04:55:04.612Z,79.97
2016-06-15T04:56:04.678Z,79.78
2016-06-15T04:57:04.572Z,79.78
2016-06-15T04:59:04.546Z,79.68
2016-06-15T05:00:05.128Z,79.21
2016-06-15T05:01:04.849Z,79.21
2016-06-15T05:02:04.713Z,79.3
2016-06-15T05:03:04.434Z,79.21
2016-06-15T05:04:07.578Z,79.11
2016-06-15T05:06:18.243Z,78.72
2016-06-15T05:07:04.446Z,78.63
2016-06-15T05:08:04.340Z,79.01
2016-06-15T05:09:04.328Z,79.01
2016-06-15T05:10:04.408Z,78.72
2016-06-15T05:12:04.696Z,78.67
2016-06-15T05:13:04.793Z,78.72
2016-06-15T05:14:04.687Z,78.67
2016-06-15T05:15:04.721Z,78.96
2016-06-15T05:16:04.677Z,79.05
2016-06-15T05:17:04.790Z,78.77
2016-06-15T05:18:04.980Z,78.77
2016-06-15T05:19:04.968Z,79.05
2016-06-15T05:20:05.034Z,78.57
2016-06-15T05:23:04.792Z,78.28
2016-06-15T05:24:04.593Z,78.77
2016-06-15T05:25:04.548Z,78.86
2016-06-15T05:26:04.458Z,78.96
2016-06-15T05:27:05.101Z,78.96
2016-06-15T05:28:04.011Z,78.96
2016-06-15T05:29:03.889Z,78.86
2016-06-15T05:30:03.861Z,78.77
2016-06-15T05:31:03.833Z,78.77
2016-06-15T05:32:03.898Z,78.86
2016-06-15T05:33:04.058Z,79.05
2016-06-15T05:34:03.779Z,78.77
2016-06-15T05:35:03.798Z,78.86
2016-06-15T05:36:03.646Z,78.86
2016-06-15T05:37:03.726Z,78.86
2016-06-15T05:38:03.963Z,78.77
2016-06-15T05:39:03.669Z,79.14
2016-06-15T05:40:03.657Z,78.96
2016-06-15T05:41:04.457Z,78.7
2016-06-15T05:42:04.804Z,78.28
2016-06-15T05:43:04.245Z,78.86
2016-06-15T05:44:03.403Z,78.99
2016-06-15T05:45:04.204Z,78.32
2016-06-15T05:46:04.254Z,78.57
2016-06-15T05:47:04.633Z,78.9
2016-06-15T05:48:05.135Z,78.7
2016-06-15T05:50:04.360Z,78.7
2016-06-15T05:51:04.363Z,78.23
2016-06-15T05:52:04.194Z,78.52
2016-06-15T05:53:07.260Z,78.42
2016-06-15T05:54:03.903Z,78.23
2016-06-15T05:55:04.079Z,78.32
2016-06-15T05:59:07.341Z,78.23
2016-06-15T06:00:07.094Z,78.32
2016-06-15T06:01:10.269Z,78.23
2016-06-15T06:03:07.041Z,78.32
2016-06-15T06:04:07.934Z,78.23
2016-06-15T06:05:06.969Z,78.23
2016-06-15T06:06:06.784Z,78.23
2016-06-15T06:07:06.708Z,78.13
2016-06-15T06:08:06.634Z,78.61
2016-06-15T06:09:07.419Z,78.13
2016-06-15T06:10:06.452Z,78.13
2016-06-15T06:11:06.956Z,78.13
2016-06-15T06:12:06.974Z,78.61
2016-06-15T06:13:06.134Z,78.32
2016-06-15T06:14:06.731Z,78.61
2016-06-15T06:15:06.405Z,78.42
2016-06-15T06:16:09.706Z,78.03
2016-06-15T06:17:07.302Z,78.32
2016-06-15T06:18:06.790Z,78.13
2016-06-15T06:19:06.558Z,78.23
2016-06-15T06:20:06.093Z,78.13
2016-06-15T06:21:06.581Z,78.42
2016-06-15T06:22:06.490Z,78.42
2016-06-15T06:24:06.715Z,78.61
2016-06-15T06:25:06.093Z,78.13
2016-06-15T06:26:18.802Z,78.42
2016-06-15T06:27:07.302Z,77.84
2016-06-15T06:28:06.695Z,78.13
2016-06-15T06:29:06.620Z,77.94
2016-06-15T06:30:10.890Z,77.88
2016-06-15T06:32:06.302Z,77.59
2016-06-15T06:33:06.507Z,77.4
2016-06-15T06:34:06.496Z,77.31
2016-06-15T06:35:06.295Z,77.31
2016-06-15T06:37:06.364Z,77.11
2016-06-15T06:38:07.053Z,77.69
2016-06-15T06:39:06.339Z,77.31
2016-06-15T06:40:06.326Z,77.78
2016-06-15T06:41:06.407Z,78.36
2016-06-15T06:42:06.363Z,77.88
2016-06-15T06:43:09.319Z,78.36
2016-06-15T06:44:06.401Z,78.36
2016-06-15T06:45:09.216Z,78.17
2016-06-15T06:47:06.128Z,77.98
2016-06-15T06:48:06.445Z,77.88
2016-06-15T06:49:05.791Z,77.98
2016-06-15T06:50:06.013Z,77.88
2016-06-15T06:51:06.079Z,77.98
2016-06-15T06:52:09.097Z,77.78
2016-06-15T06:53:05.866Z,77.69
2016-06-15T06:54:06.135Z,77.69
2016-06-15T06:55:05.356Z,77.69
2016-06-15T06:56:05.345Z,77.88
2016-06-15T06:57:05.456Z,77.69
2016-06-15T06:58:05.241Z,77.34
2016-06-15T06:59:08.212Z,77.4
2016-06-15T07:00:05.638Z,77.44
2016-06-15T07:01:05.672Z,77.53
2016-06-15T07:04:05.713Z,77.53
2016-06-15T07:05:05.825Z,77.53
2016-06-15T07:06:05.281Z,77.53
2016-06-15T07:07:05.518Z,77.44
2016-06-15T07:08:05.756Z,77.44
2016-06-15T07:09:05.806Z,77.34
2016-06-15T07:10:05.621Z,77.34
2016-06-15T07:11:05.609Z,77.31
2016-06-15T07:12:05.738Z,77.34
2016-06-15T07:13:05.740Z,76.77
2016-06-15T07:14:05.462Z,77.06
2016-06-15T07:15:04.824Z,76.86
2016-06-15T07:16:04.875Z,77.15
2016-06-15T07:17:05.487Z,77.15
2016-06-15T07:18:05.490Z,77.06
2016-06-15T07:19:08.305Z,77.15
2016-06-15T07:20:05.402Z,77.25
2016-06-15T07:21:05.140Z,77.15
2016-06-15T07:22:05.300Z,76.67
2016-06-15T07:23:05.224Z,76.96
2016-06-15T07:24:05.461Z,77.25
2016-06-15T07:25:05.230Z,77.06
2016-06-15T07:26:04.952Z,76.57
2016-06-15T07:27:18.427Z,77.06
2016-06-15T07:28:04.943Z,77.15
2016-06-15T07:29:05.055Z,77.25
2016-06-15T07:30:04.964Z,77.06
2016-06-15T07:31:18.361Z,77.06
2016-06-15T07:32:05.299Z,76.96
2016-06-15T07:33:04.505Z,77.25
2016-06-15T07:34:05.430Z,76.96
2016-06-15T07:35:04.448Z,76.96
2016-06-15T07:36:04.482Z,76.39
2016-06-15T07:37:05.220Z,77.25
2016-06-15T07:38:04.988Z,77.06
2016-06-15T07:39:05.163Z,76.77
2016-06-15T07:40:04.932Z,76.57
2016-06-15T07:41:05.045Z,76.48
2016-06-15T07:42:04.267Z,76.57
2016-06-15T07:43:04.347Z,76.48
2016-06-15T07:44:05.711Z,76.32
2016-06-15T07:45:04.307Z,76.32
2016-06-15T07:46:04.013Z,76.29
2016-06-15T07:47:05.641Z,76.23
2016-06-15T07:48:04.894Z,76.71
2016-06-15T07:49:04.882Z,75.94
2016-06-15T07:50:04.775Z,75.84
2016-06-15T07:51:05.138Z,75.46
2016-06-15T07:52:05.625Z,75.46
2016-06-15T07:53:04.942Z,75.84
2016-06-15T07:54:04.819Z,75.94
2016-06-15T07:55:04.775Z,75.79
2016-06-15T07:56:04.998Z,75.88
2016-06-15T07:57:04.844Z,75.75
2016-06-15T07:58:04.691Z,75.49
2016-06-15T07:59:04.412Z,75.46
2016-06-15T08:00:04.791Z,75.79
2016-06-15T08:01:04.247Z,75.98
2016-06-15T08:02:06.984Z,75.49
2016-06-15T08:04:04.615Z,74.92
2016-06-15T08:05:04.415Z,75.02
2016-06-15T08:06:03.824Z,75.11
2016-06-15T08:07:07.735Z,75.21
2016-06-15T08:08:04.690Z,75.02
2016-06-15T08:09:04.491Z,74.63
2016-06-15T08:10:04.431Z,74.92
2016-06-15T08:11:03.918Z,74.82
2016-06-15T08:12:03.656Z,74.82
2016-06-15T08:13:03.689Z,74.82
2016-06-15T08:14:03.615Z,74.82
2016-06-15T08:15:03.587Z,74.63
2016-06-15T08:16:03.621Z,74.92
2016-06-15T08:17:03.641Z,74.92
2016-06-15T08:18:03.518Z,74.92
2016-06-15T08:19:03.505Z,74.29
2016-06-15T08:20:03.492Z,74.15
2016-06-15T08:21:03.464Z,74.67
2016-06-15T08:22:04.374Z,74.19
2016-06-15T08:23:13.283Z,74.57
2016-06-15T08:24:05.724Z,74.67
2016-06-15T08:25:03.399Z,74.48
2016-06-15T08:26:03.965Z,73.9
2016-06-15T08:27:07.014Z,73.8
2016-06-15T08:29:29.867Z,73.36
2016-06-15T08:30:29.464Z,73.07
2016-06-15T08:31:29.342Z,73.07
2016-06-15T08:32:29.346Z,72.88
2016-06-15T08:33:29.285Z,72.59
2016-06-15T08:34:32.289Z,72.3
2016-06-15T08:35:29.558Z,72.39
2016-06-15T08:36:38.217Z,72.53
2016-06-15T08:37:29.439Z,73.07
2016-06-15T08:38:29.441Z,72.97
2016-06-15T08:39:42.804Z,73.26
2016-06-15T08:40:29.761Z,73.16
2016-06-15T08:41:29.529Z,73.07
2016-06-15T08:42:29.267Z,73.07
2016-06-15T08:43:29.145Z,72.78
2016-06-15T08:44:31.351Z,72.97
2016-06-15T08:46:29.560Z,73.07
2016-06-15T08:47:28.970Z,72.97
2016-06-15T08:48:28.550Z,72.94
2016-06-15T08:49:29.178Z,72.55
2016-06-15T08:50:29.198Z,72.78
2016-06-15T08:51:29.887Z,72.59
2016-06-15T08:52:28.923Z,72.55
2016-06-15T08:53:28.831Z,72.36
2016-06-15T08:54:29.038Z,72.36
2016-06-15T08:55:29.447Z,72.94
2016-06-15T08:56:29.028Z,72.94
2016-06-15T08:57:28.719Z,72.94
2016-06-15T08:58:32.003Z,72.94
2016-06-15T08:59:28.834Z,73.13
2016-06-15T09:00:32.040Z,72.84
2016-06-15T09:01:31.326Z,72.84
2016-06-15T09:02:28.454Z,72.55
2016-06-15T09:03:28.910Z,72.45
2016-06-15T09:04:28.256Z,72.36
2016-06-15T09:05:28.588Z,72.36
2016-06-15T09:06:29.294Z,72.17
2016-06-15T09:07:29.281Z,72.26
2016-06-15T09:08:28.144Z,72.45
2016-06-15T09:09:28.475Z,72.45
2016-06-15T09:10:28.087Z,72.45
2016-06-15T09:12:27.952Z,72.3
2016-06-15T09:13:34.701Z,71.88
2016-06-15T09:14:28.309Z,71.91
2016-06-15T09:15:45.268Z,72.11
2016-06-15T09:16:28.190Z,72.01
2016-06-15T09:17:27.849Z,72.01
2016-06-15T09:18:27.853Z,72.2
2016-06-15T09:20:27.780Z,72.11
2016-06-15T09:21:27.971Z,72.3
2016-06-15T09:22:28.348Z,72.2
2016-06-15T09:23:27.743Z,72.2
2016-06-15T09:24:27.698Z,71.81
2016-06-15T09:25:27.702Z,71.62
2016-06-15T09:26:27.720Z,71.91
2016-06-15T09:27:27.646Z,72.59
2016-06-15T09:28:27.664Z,72.39
2016-06-15T09:29:27.599Z,72.39
2016-06-15T09:30:27.586Z,73.07
2016-06-15T09:31:27.558Z,72.84
2016-06-15T09:32:27.547Z,72.94
2016-06-15T09:33:27.518Z,72.94
2016-06-15T09:34:27.520Z,72.84
2016-06-15T09:35:27.477Z,73.13
2016-06-15T09:36:27.480Z,73.13
2016-06-15T09:37:27.498Z,73.03
2016-06-15T09:38:27.423Z,73.03
2016-06-15T09:39:27.442Z,72.84
2016-06-15T09:40:27.555Z,73.03
2016-06-15T09:41:27.386Z,73.13
2016-06-15T09:42:27.342Z,73.13
2016-06-15T09:43:27.314Z,72.74
2016-06-15T09:44:27.317Z,73.71
2016-06-15T09:45:27.274Z,73.42
2016-06-15T09:46:27.245Z,73.71
2016-06-15T09:47:27.248Z,73.51
2016-06-15T09:48:27.454Z,73.71
2016-06-15T09:49:27.067Z,72.94
2016-06-15T09:50:27.022Z,72.94
2016-06-15T09:51:27.151Z,73.03
2016-06-15T09:52:27.108Z,72.84
2016-06-15T09:53:27.267Z,72.65
2016-06-15T09:54:27.113Z,72.94
2016-06-15T09:55:27.117Z,73.13
2016-06-15T09:56:27.073Z,73.16
2016-06-15T09:57:26.873Z,72.97
2016-06-15T09:58:30.188Z,72.97
2016-06-15T09:59:27.005Z,72.49
2016-06-15T10:01:26.978Z,72.49
2016-06-15T10:02:26.919Z,72.24
2016-06-15T10:03:26.922Z,72.33
2016-06-15T10:04:26.897Z,72.24
2016-06-15T10:05:26.940Z,71.85
2016-06-15T10:06:26.952Z,72.14
2016-06-15T10:07:27.246Z,71.85
2016-06-15T10:08:26.975Z,72.24
2016-06-15T10:09:27.022Z,71.56
2016-06-15T10:10:27.009Z,71.41
2016-06-15T10:11:26.821Z,71.5
2016-06-15T10:12:27.011Z,71.7
2016-06-15T10:13:26.982Z,71.12
2016-06-15T10:14:26.980Z,71.6
2016-06-15T10:15:26.957Z,71.31
2016-06-15T10:16:29.152Z,71.6
2016-06-15T10:17:26.927Z,71.12
2016-06-15T10:18:26.935Z,71.98
2016-06-15T10:19:26.895Z,71.89
2016-06-15T10:20:26.884Z,71.89
2016-06-15T10:21:26.936Z,71.79
2016-06-15T10:22:27.535Z,71.95
2016-06-15T10:23:26.899Z,71.6
2016-06-15T10:24:26.809Z,71.22
2016-06-15T10:25:26.813Z,71.31
2016-06-15T10:26:26.786Z,71.02
2016-06-15T10:27:26.757Z,70.83
2016-06-15T10:28:26.730Z,70.54
2016-06-15T10:29:26.734Z,70.25
2016-06-15T10:30:26.690Z,70.35
2016-06-15T10:31:26.583Z,70.64
2016-06-15T10:32:26.666Z,70.38
2016-06-15T10:33:26.637Z,70.38
2016-06-15T10:34:26.626Z,70
2016-06-15T10:35:29.519Z,69.9
2016-06-15T10:36:32.647Z,69.51
2016-06-15T10:37:34.479Z,69.42
2016-06-15T10:38:37.153Z,69.61
2016-06-15T10:39:30.563Z,69.64
2016-06-15T10:40:37.363Z,68.26
2016-06-15T10:41:45.726Z,68.68
2016-06-15T10:42:55.494Z,68.59
2016-06-15T10:43:46.669Z,68.59
2016-06-15T10:44:46.610Z,68.29
2016-06-15T10:45:55.535Z,68.29
2016-06-15T10:46:55.179Z,68.29
2016-06-15T10:48:25.825Z,68.59
2016-06-15T10:49:26.266Z,68.68
2016-06-15T10:51:25.116Z,68.59
2016-06-15T10:53:17.075Z,68.87
2016-06-15T10:55:01.766Z,68.26
2016-06-15T10:55:55.097Z,68.65
2016-06-15T10:56:55.069Z,68.45
2016-06-15T10:57:55.040Z,68.49
2016-06-15T10:58:55.028Z,68.65
2016-06-15T10:59:54.985Z,68.26
2016-06-15T11:00:54.988Z,68.65
2016-06-15T11:01:54.960Z,68.29
2016-06-15T11:02:54.963Z,68.1
2016-06-15T11:03:54.919Z,68.19
2016-06-15T11:04:54.906Z,67.81
2016-06-15T11:05:54.987Z,67.62
2016-06-15T11:06:55.288Z,67.71
2016-06-15T11:07:55.259Z,67.81
2016-06-15T11:08:54.824Z,67.71
2016-06-15T11:09:54.813Z,68.1
2016-06-15T11:10:54.799Z,68.01
2016-06-15T11:11:54.788Z,67.81
2016-06-15T11:12:54.744Z,67.71
2016-06-15T11:13:54.731Z,67.52
2016-06-15T11:14:54.733Z,67.81
2016-06-15T11:15:54.675Z,67.81
2016-06-15T11:16:54.678Z,68.1
2016-06-15T11:17:54.649Z,67.43
2016-06-15T11:18:54.669Z,68.29
2016-06-15T11:19:54.671Z,67.52
2016-06-15T11:20:54.628Z,67.14
2016-06-15T11:21:54.647Z,66.75
2016-06-15T11:22:55.399Z,66.08
2016-06-15T11:23:54.589Z,65.98
2016-06-15T11:24:54.515Z,65.59
2016-06-15T11:25:54.470Z,65.69
2016-06-15T11:26:54.490Z,65.11
2016-06-15T11:27:54.508Z,65.4
2016-06-15T11:28:54.932Z,64.82
2016-06-15T11:29:54.421Z,64.95
2016-06-15T11:30:54.517Z,64.47
2016-06-15T11:31:54.395Z,64.08
2016-06-15T11:32:54.367Z,63.89
2016-06-15T11:33:54.355Z,63.7
2016-06-15T11:34:54.326Z,64.28
2016-06-15T11:35:54.455Z,63.79
2016-06-15T11:36:54.302Z,63.6
2016-06-15T11:37:54.288Z,63.5
2016-06-15T11:38:54.229Z,63.98
2016-06-15T11:39:54.076Z,63.4
2016-06-15T11:40:54.063Z,63.5
2016-06-15T11:41:54.067Z,63.79
2016-06-15T11:42:54.148Z,63.5
2016-06-15T11:43:54.214Z,63.79
2016-06-15T11:44:54.170Z,63.98
2016-06-15T11:45:54.110Z,63.5
2016-06-15T11:46:54.114Z,63.12
2016-06-15T11:47:54.319Z,63.12
2016-06-15T11:48:54.072Z,62.82
2016-06-15T11:49:54.045Z,62.73
2016-06-15T11:50:54.063Z,62.66
2016-06-15T11:51:54.192Z,62.76
2016-06-15T11:52:54.320Z,63.05
2016-06-15T11:53:53.963Z,62.37
2016-06-15T11:54:53.951Z,62.18
2016-06-15T11:55:54.156Z,62.08
2016-06-15T11:56:53.894Z,62.37
2016-06-15T11:57:53.960Z,62.18
2016-06-15T11:58:53.963Z,62.47
2016-06-15T11:59:53.904Z,62.86
2016-06-15T12:00:53.969Z,62.82
2016-06-15T12:01:53.817Z,63.21
2016-06-15T12:02:53.788Z,62.92
2016-06-15T12:03:53.776Z,63.12
2016-06-15T12:04:53.763Z,63.21
2016-06-15T12:05:54.109Z,62.92
2016-06-15T12:06:53.707Z,62.15
2016-06-15T12:07:54.209Z,62.95
2016-06-15T12:08:53.728Z,63.21
2016-06-15T12:09:53.653Z,63.79
2016-06-15T12:10:53.734Z,63.5
2016-06-15T12:11:53.643Z,64.18
2016-06-15T12:12:53.646Z,64.05
2016-06-15T12:13:53.774Z,64.15
2016-06-15T12:14:53.653Z,64.43
2016-06-15T12:15:53.531Z,64.79
2016-06-15T12:16:53.502Z,64.79
2016-06-15T12:17:53.521Z,64.69
2016-06-15T12:18:53.634Z,65.17
2016-06-15T12:19:56.715Z,65.17
2016-06-15T12:20:53.468Z,64.86
2016-06-15T12:21:53.440Z,65.24
2016-06-15T12:22:53.286Z,65.14
2016-06-15T12:23:53.290Z,65.63
2016-06-15T12:24:53.371Z,65.63
2016-06-15T12:25:53.343Z,65.63
2016-06-15T12:26:53.346Z,65.81
2016-06-15T12:27:53.552Z,65.53
2016-06-15T12:28:53.336Z,65.43
2016-06-15T12:29:53.278Z,65.81
2016-06-15T12:30:53.343Z,65.59
2016-06-15T12:31:53.237Z,65.69
2016-06-15T12:32:53.223Z,65.98
2016-06-15T12:33:53.226Z,66.27
2016-06-15T12:34:53.183Z,66.46
2016-06-15T12:35:53.155Z,66.65
2016-06-15T12:36:53.251Z,66.55
2016-06-15T12:37:53.130Z,66.46
2016-06-15T12:38:53.086Z,66.46
2016-06-15T12:39:53.073Z,66.17
2016-06-15T12:40:53.093Z,66.27
2016-06-15T12:41:53.032Z,66.36
2016-06-15T12:42:53.020Z,66.36
2016-06-15T12:43:53.054Z,66.46
2016-06-15T12:44:55.980Z,66.27
2016-06-15T12:45:52.952Z,66.46
2016-06-15T12:46:52.939Z,66.46
2016-06-15T12:47:52.911Z,66.52
2016-06-15T12:48:52.928Z,66.62
2016-06-15T12:49:52.901Z,66.14
2016-06-15T12:50:52.857Z,66.81
2016-06-15T12:51:52.954Z,66.91
2016-06-15T12:52:52.863Z,66.71
2016-06-15T12:53:52.804Z,66.62
2016-06-15T12:54:52.792Z,66.62
2016-06-15T12:55:52.763Z,66.91
2016-06-15T12:56:52.766Z,66.81
2016-06-15T12:57:52.878Z,66.24
2016-06-15T12:58:52.742Z,66.81
2016-06-15T12:59:52.713Z,66.81
2016-06-15T13:00:52.966Z,66.71
2016-06-15T13:01:52.641Z,66.88
2016-06-15T13:02:52.941Z,67.16
2016-06-15T13:03:52.600Z,66.88
2016-06-15T13:04:52.603Z,67.65
2016-06-15T13:05:52.638Z,67.07
2016-06-15T13:07:06.391Z,67.07
2016-06-15T13:07:52.722Z,67.35
2016-06-15T13:08:52.506Z,67.35
2016-06-15T13:09:52.776Z,67.55
2016-06-15T13:10:52.653Z,68.13
2016-06-15T13:11:52.468Z,67.65
2016-06-15T13:12:52.425Z,67.65
2016-06-15T13:13:52.412Z,67.45
2016-06-15T13:14:52.384Z,68.03
2016-06-15T13:15:52.372Z,67.65
2016-06-15T13:16:52.359Z,67.65
2016-06-15T13:17:52.315Z,68.03
2016-06-15T13:18:52.287Z,68.41
2016-06-15T13:19:52.306Z,68.41
2016-06-15T13:20:52.216Z,68.51
2016-06-15T13:21:52.483Z,68.32
2016-06-15T13:22:52.330Z,68.32
2016-06-15T13:23:52.381Z,68.41
2016-06-15T13:24:52.180Z,68.51
2016-06-15T13:25:52.153Z,68.32
2016-06-15T13:26:52.140Z,68.51